Time;durP1;ratioP1;P1;durP2;ratioP2;P2;SDS_P1;SDS_P2;PMS_P1;PMS_P2;Temp;Humidity;BMP_temperature;BMP_pressure;BME280_temperature;BME280_humidity;BME280_pressure;Samples;Min_cycle;Max_cycle;Signal;HPM_P1;HPM_P2
2021/10/30 00:02:11;;;;;;;8.70;4.88;;;13.20;95.80;;;;;;5055966;28;20399;-89
2021/10/30 00:04:36;;;;;;;8.43;4.57;;;13.20;95.80;;;;;;5058162;28;20380;-89
2021/10/30 00:07:02;;;;;;;6.78;4.18;;;13.20;95.80;;;;;;5057276;28;20037;-88
2021/10/30 00:09:28;;;;;;;8.23;4.93;;;13.10;95.70;;;;;;5056607;28;20178;-89
2021/10/30 00:11:54;;;;;;;8.60;4.70;;;13.10;95.80;;;;;;5057231;28;20047;-89
2021/10/30 00:14:22;;;;;;;9.75;4.90;;;13.10;95.80;;;;;;5056785;28;20065;-89
2021/10/30 00:16:48;;;;;;;8.27;4.68;;;13.00;95.70;;;;;;5057130;28;20107;-89
2021/10/30 00:19:14;;;;;;;8.10;4.60;;;13.00;95.80;;;;;;5056101;28;20472;-89
2021/10/30 00:21:39;;;;;;;9.13;4.80;;;13.00;95.70;;;;;;5057526;28;20054;-89
2021/10/30 00:24:05;;;;;;;6.82;4.15;;;13.00;95.80;;;;;;5056076;28;20053;-89
2021/10/30 00:26:30;;;;;;;7.68;4.82;;;12.90;95.70;;;;;;5057343;28;20048;-89
2021/10/30 00:28:56;;;;;;;7.18;4.63;;;12.90;95.70;;;;;;5056369;28;20040;-89
2021/10/30 00:31:21;;;;;;;6.40;4.53;;;12.90;95.80;;;;;;5047747;28;20465;-89
2021/10/30 00:33:47;;;;;;;9.10;5.22;;;12.90;95.80;;;;;;5045479;28;20028;-89
2021/10/30 00:36:13;;;;;;;7.63;4.40;;;12.80;95.90;;;;;;5056354;28;20462;-89
2021/10/30 00:38:38;;;;;;;7.03;4.53;;;12.80;95.90;;;;;;5056833;28;20393;-89
2021/10/30 00:41:09;;;;;;;7.50;4.50;;;12.80;95.90;;;;;;5055984;28;20430;-89
2021/10/30 00:43:35;;;;;;;7.05;4.40;;;12.80;96.00;;;;;;5044067;28;20057;-89
2021/10/30 00:46:02;;;;;;;7.13;3.92;;;12.80;95.90;;;;;;5052739;28;20136;-90
2021/10/30 00:48:27;;;;;;;8.68;4.18;;;12.80;96.00;;;;;;5036678;28;20484;-90
2021/10/30 00:50:55;;;;;;;6.68;4.18;;;12.70;95.80;;;;;;5035771;28;20045;-90
2021/10/30 00:53:30;;;;;;;6.47;4.47;;;12.70;95.70;;;;;;5036931;28;20126;-89
2021/10/30 00:55:59;;;;;;;7.43;4.55;;;12.70;95.70;;;;;;5036313;28;20048;-89
2021/10/30 00:58:28;;;;;;;6.55;4.53;;;12.70;95.80;;;;;;5035833;28;20041;-89
2021/10/30 01:00:54;;;;;;;7.57;4.68;;;12.70;95.70;;;;;;5036021;28;20040;-89
2021/10/30 01:03:20;;;;;;;10.63;5.10;;;12.70;95.70;;;;;;5036600;28;20037;-90
2021/10/30 01:05:46;;;;;;;7.13;4.47;;;12.60;95.70;;;;;;5036145;28;20045;-90
2021/10/30 01:08:13;;;;;;;7.85;4.40;;;12.60;95.70;;;;;;5036600;28;20140;-88
2021/10/30 01:10:40;;;;;;;8.75;4.63;;;12.60;95.70;;;;;;5035865;28;20059;-88
2021/10/30 01:13:05;;;;;;;5.63;4.03;;;12.60;95.60;;;;;;5035622;28;20049;-89
2021/10/30 01:15:31;;;;;;;8.50;4.40;;;12.50;95.60;;;;;;5036146;28;20044;-89
2021/10/30 01:17:59;;;;;;;7.82;4.78;;;12.50;95.70;;;;;;5036321;28;20100;-89
2021/10/30 01:20:26;;;;;;;6.97;4.80;;;12.50;95.70;;;;;;5035621;28;20068;-90
2021/10/30 01:23:00;;;;;;;6.60;4.60;;;12.50;95.80;;;;;;5036065;28;20052;-89
2021/10/30 01:25:27;;;;;;;8.80;4.50;;;12.50;95.90;;;;;;5035897;28;20033;-90
2021/10/30 01:27:54;;;;;;;6.50;4.18;;;12.40;95.90;;;;;;5035900;28;20044;-89
2021/10/30 01:30:21;;;;;;;8.82;4.43;;;12.40;95.80;;;;;;5035613;28;20052;-89
2021/10/30 01:33:00;;;;;;;8.43;4.90;;;12.40;95.70;;;;;;5035784;28;20068;-90
2021/10/30 01:35:29;;;;;;;6.70;4.15;;;12.40;95.80;;;;;;5036133;28;20416;-89
2021/10/30 01:37:57;;;;;;;7.60;4.28;;;12.30;95.90;;;;;;5036097;28;20416;-89
2021/10/30 01:40:26;;;;;;;6.75;4.28;;;12.30;95.80;;;;;;5035087;28;20045;-89
2021/10/30 01:42:58;;;;;;;6.93;4.03;;;12.30;95.70;;;;;;5042159;28;20059;-89
2021/10/30 01:45:24;;;;;;;6.55;4.07;;;12.30;95.60;;;;;;5055812;28;20061;-90
2021/10/30 01:47:50;;;;;;;7.57;4.05;;;12.30;95.70;;;;;;5055458;28;20141;-88
2021/10/30 01:50:16;;;;;;;6.15;4.45;;;12.20;95.80;;;;;;5055470;28;20041;-89
2021/10/30 01:52:42;;;;;;;8.68;4.40;;;12.20;95.70;;;;;;5056614;28;20388;-89
2021/10/30 01:55:12;;;;;;;6.65;3.75;;;12.20;96.00;;;;;;5055329;28;20056;-89
2021/10/30 01:57:38;;;;;;;7.15;4.07;;;12.20;95.60;;;;;;5055976;28;20040;-90
2021/10/30 02:00:07;;;;;;;6.97;4.60;;;12.20;95.70;;;;;;5055693;28;20025;-90
2021/10/30 02:02:33;;;;;;;6.85;4.47;;;12.10;95.90;;;;;;5055636;28;20041;-89
2021/10/30 02:05:00;;;;;;;6.65;4.20;;;12.10;95.90;;;;;;5055556;28;20032;-89
2021/10/30 02:07:26;;;;;;;7.88;4.95;;;12.10;95.90;;;;;;5055395;28;20563;-89
2021/10/30 02:09:52;;;;;;;8.52;4.60;;;12.10;96.00;;;;;;5054861;28;20084;-89
2021/10/30 02:12:18;;;;;;;7.57;4.22;;;12.10;96.10;;;;;;5055154;28;20051;-89
2021/10/30 02:14:43;;;;;;;6.22;4.28;;;12.00;96.00;;;;;;5054997;28;20036;-89
2021/10/30 02:17:09;;;;;;;6.35;4.30;;;12.10;96.10;;;;;;5055613;28;20048;-89
2021/10/30 02:19:35;;;;;;;6.40;4.50;;;12.00;96.00;;;;;;5054775;28;20127;-89
2021/10/30 02:22:00;;;;;;;7.13;4.93;;;12.00;96.20;;;;;;5054709;28;20044;-89
2021/10/30 02:24:26;;;;;;;7.78;4.85;;;12.00;96.20;;;;;;5055317;28;20052;-89
2021/10/30 02:26:52;;;;;;;8.38;5.35;;;11.90;96.20;;;;;;5055107;28;20044;-89
2021/10/30 02:29:18;;;;;;;7.90;4.60;;;11.90;96.30;;;;;;5056591;28;20049;-89
2021/10/30 02:31:44;;;;;;;7.65;5.20;;;11.90;96.30;;;;;;5059239;28;20044;-89
2021/10/30 02:34:10;;;;;;;8.05;5.10;;;11.90;96.20;;;;;;5058320;28;20124;-89
2021/10/30 02:36:35;;;;;;;7.15;4.88;;;11.90;96.10;;;;;;5058092;28;20075;-92
2021/10/30 02:39:01;;;;;;;7.80;5.22;;;11.90;96.20;;;;;;5058605;28;20511;-89
2021/10/30 02:41:27;;;;;;;6.80;4.80;;;11.80;96.00;;;;;;5058365;28;20044;-89
2021/10/30 02:43:53;;;;;;;10.27;5.20;;;11.80;96.20;;;;;;5058399;28;20143;-90
2021/10/30 02:46:19;;;;;;;6.85;4.47;;;11.80;96.30;;;;;;5076590;28;20040;-90
2021/10/30 02:48:44;;;;;;;9.13;5.40;;;11.80;96.50;;;;;;5077085;28;20047;-90
2021/10/30 02:51:10;;;;;;;9.50;6.45;;;11.70;96.40;;;;;;5058130;28;20391;-90
2021/10/30 02:53:35;;;;;;;8.80;5.63;;;11.70;96.50;;;;;;5059003;28;20123;-90
2021/10/30 02:56:01;;;;;;;9.07;5.22;;;11.70;96.40;;;;;;5076351;28;20055;-91
2021/10/30 02:58:26;;;;;;;7.82;5.63;;;11.70;96.50;;;;;;5058918;28;20052;-90
2021/10/30 03:00:52;;;;;;;9.68;6.63;;;11.60;96.60;;;;;;5049363;28;20044;-89
2021/10/30 03:03:18;;;;;;;8.40;5.65;;;11.60;96.70;;;;;;5058465;28;20044;-90
2021/10/30 03:05:43;;;;;;;8.77;5.65;;;11.60;96.60;;;;;;5057908;28;20040;-90
2021/10/30 03:08:09;;;;;;;8.82;6.72;;;11.60;96.60;;;;;;5076179;28;20098;-90
2021/10/30 03:10:34;;;;;;;11.00;6.35;;;11.50;96.70;;;;;;5058201;28;20041;-88
2021/10/30 03:13:00;;;;;;;10.15;6.38;;;11.50;96.80;;;;;;5077080;28;20041;-90
2021/10/30 03:15:26;;;;;;;8.43;6.25;;;11.50;96.80;;;;;;5060911;28;20369;-90
2021/10/30 03:17:51;;;;;;;8.50;6.40;;;11.50;97.00;;;;;;5059467;28;20041;-89
2021/10/30 03:20:18;;;;;;;7.97;5.55;;;11.50;96.90;;;;;;5058306;28;20406;-89
2021/10/30 03:22:44;;;;;;;10.15;5.60;;;11.50;96.80;;;;;;5058233;28;20049;-90
2021/10/30 03:25:10;;;;;;;10.57;6.75;;;11.40;96.70;;;;;;5057602;28;20379;-90
2021/10/30 03:27:35;;;;;;;11.43;6.75;;;11.40;96.80;;;;;;5058327;28;20052;-90
2021/10/30 03:30:01;;;;;;;8.30;5.80;;;11.50;97.00;;;;;;5053392;28;20040;-89
2021/10/30 03:32:26;;;;;;;11.05;7.05;;;11.50;97.00;;;;;;5057452;28;20436;-90
2021/10/30 03:34:52;;;;;;;9.57;6.70;;;11.40;97.10;;;;;;5057772;28;20048;-90
2021/10/30 03:37:18;;;;;;;11.15;6.00;;;11.40;97.10;;;;;;5057656;28;20041;-90
2021/10/30 03:39:43;;;;;;;8.65;5.68;;;11.40;96.90;;;;;;5056963;28;20059;-90
2021/10/30 03:42:09;;;;;;;13.13;6.45;;;11.40;96.80;;;;;;5056337;28;20501;-89
2021/10/30 03:44:35;;;;;;;7.95;5.43;;;11.40;97.00;;;;;;5058138;28;20048;-89
2021/10/30 03:47:00;;;;;;;7.97;5.70;;;11.40;97.00;;;;;;5056769;28;20046;-89
2021/10/30 03:49:26;;;;;;;8.07;5.05;;;11.40;97.00;;;;;;5057850;28;20040;-89
2021/10/30 03:51:52;;;;;;;10.38;6.82;;;11.40;97.00;;;;;;5057452;28;20066;-88
2021/10/30 03:54:18;;;;;;;9.82;7.20;;;11.30;97.00;;;;;;5056689;28;20037;-89
2021/10/30 03:56:43;;;;;;;7.35;5.57;;;11.30;97.00;;;;;;5057308;28;20048;-89
2021/10/30 03:59:09;;;;;;;9.75;6.05;;;11.30;97.00;;;;;;5057714;28;20040;-89
2021/10/30 04:01:34;;;;;;;6.97;5.20;;;11.30;96.80;;;;;;5057214;28;20117;-89
2021/10/30 04:04:01;;;;;;;8.52;6.00;;;11.30;96.80;;;;;;5057806;28;20380;-89
2021/10/30 04:06:26;;;;;;;9.57;6.45;;;11.30;97.00;;;;;;5059225;28;20130;-90
2021/10/30 04:08:56;;;;;;;8.20;5.43;;;11.30;96.90;;;;;;5053733;28;20068;-90
2021/10/30 04:11:21;;;;;;;8.90;6.18;;;11.30;96.80;;;;;;5048986;28;20045;-89
2021/10/30 04:13:47;;;;;;;8.00;5.63;;;11.30;96.90;;;;;;5057076;28;20036;-91
2021/10/30 04:16:13;;;;;;;10.65;5.97;;;11.20;96.90;;;;;;5056220;28;20427;-90
2021/10/30 04:18:39;;;;;;;8.50;6.78;;;11.20;96.80;;;;;;5057107;28;20050;-90
2021/10/30 04:21:05;;;;;;;9.50;5.72;;;11.30;97.20;;;;;;5056867;28;20123;-89
2021/10/30 04:23:30;;;;;;;7.07;5.10;;;11.20;96.80;;;;;;5056236;28;20090;-89
2021/10/30 04:25:56;;;;;;;11.60;7.32;;;11.20;96.60;;;;;;5056697;28;20051;-90
2021/10/30 04:28:21;;;;;;;9.80;6.13;;;11.20;96.60;;;;;;5074125;28;20083;-90
2021/10/30 04:30:48;;;;;;;8.70;6.07;;;11.20;96.60;;;;;;5056539;28;20036;-91
2021/10/30 04:33:17;;;;;;;9.07;6.40;;;11.20;96.60;;;;;;5056863;28;20044;-90
2021/10/30 04:35:43;;;;;;;8.30;5.78;;;11.20;96.60;;;;;;5055338;28;20054;-89
2021/10/30 04:38:09;;;;;;;9.80;6.57;;;11.20;96.50;;;;;;5074641;28;20041;-91
2021/10/30 04:40:35;;;;;;;9.82;6.25;;;11.20;96.60;;;;;;5056580;28;20569;-90
2021/10/30 04:43:01;;;;;;;10.55;7.68;;;11.20;96.50;;;;;;5039382;28;20079;-90
2021/10/30 04:45:27;;;;;;;11.30;7.93;;;11.20;96.60;;;;;;5056279;28;20101;-91
2021/10/30 04:47:52;;;;;;;12.02;7.90;;;11.20;96.70;;;;;;5057041;28;20131;-89
2021/10/30 04:50:18;;;;;;;9.13;6.80;;;11.20;96.70;;;;;;5055666;28;20498;-90
2021/10/30 04:52:44;;;;;;;10.23;6.63;;;11.20;96.60;;;;;;5056297;28;20036;-90
2021/10/30 04:55:10;;;;;;;10.20;7.90;;;11.20;96.40;;;;;;5056293;28;20419;-90
2021/10/30 04:57:35;;;;;;;11.23;8.13;;;11.20;96.20;;;;;;5055790;28;20056;-89
2021/10/30 05:00:03;;;;;;;11.50;8.20;;;11.20;96.30;;;;;;5056184;28;20072;-91
2021/10/30 05:02:29;;;;;;;9.95;7.53;;;11.20;96.40;;;;;;5056122;28;20051;-90
2021/10/30 05:04:54;;;;;;;11.02;8.70;;;11.20;96.40;;;;;;5056247;28;20044;-92
2021/10/30 05:07:20;;;;;;;15.98;11.85;;;11.20;96.30;;;;;;5056113;28;20131;-91
2021/10/30 05:09:45;;;;;;;12.63;9.20;;;11.20;96.60;;;;;;5056740;28;20565;-90
2021/10/30 05:12:11;;;;;;;16.52;11.15;;;11.30;96.70;;;;;;5054894;28;20048;-92
2021/10/30 05:14:39;;;;;;;12.38;8.57;;;11.20;96.80;;;;;;5056140;28;20037;-90
2021/10/30 05:17:05;;;;;;;13.80;10.45;;;11.20;96.70;;;;;;5055009;28;20048;-90
2021/10/30 05:19:30;;;;;;;10.73;8.30;;;11.30;96.80;;;;;;5055299;28;20166;-90
2021/10/30 05:21:56;;;;;;;11.88;9.88;;;11.30;96.70;;;;;;5055614;28;20384;-90
2021/10/30 05:24:22;;;;;;;13.57;10.13;;;11.30;96.70;;;;;;5055469;28;20044;-90
2021/10/30 05:26:47;;;;;;;11.73;9.18;;;11.30;96.80;;;;;;5055647;28;20045;-90
2021/10/30 05:29:13;;;;;;;11.70;8.13;;;11.30;96.70;;;;;;5055990;28;20045;-90
2021/10/30 05:31:38;;;;;;;14.63;10.50;;;11.20;96.50;;;;;;5055047;28;20051;-90
2021/10/30 05:34:04;;;;;;;15.48;11.65;;;11.30;96.60;;;;;;5056195;28;20503;-91
2021/10/30 05:36:32;;;;;;;20.60;13.02;;;11.30;96.60;;;;;;5054137;28;20040;-86
2021/10/30 05:38:58;;;;;;;11.88;8.90;;;11.20;96.80;;;;;;5054376;28;20072;-86
2021/10/30 05:41:25;;;;;;;15.88;11.68;;;11.30;96.90;;;;;;5054177;28;20083;-85
2021/10/30 05:43:51;;;;;;;15.27;11.23;;;11.30;97.10;;;;;;5054934;28;20061;-83
2021/10/30 05:46:17;;;;;;;15.07;11.70;;;11.30;96.90;;;;;;5053260;28;20131;-83
2021/10/30 05:48:43;;;;;;;17.35;13.82;;;11.30;97.00;;;;;;5055231;28;20063;-83
2021/10/30 05:51:09;;;;;;;17.77;13.10;;;11.30;97.10;;;;;;5054666;28;20086;-83
2021/10/30 05:53:34;;;;;;;18.92;12.93;;;11.30;97.10;;;;;;5054876;28;20445;-84
2021/10/30 05:56:00;;;;;;;13.20;10.25;;;11.30;97.20;;;;;;5072865;28;20045;-85
2021/10/30 05:58:26;;;;;;;15.57;12.63;;;11.30;96.90;;;;;;5054144;28;20048;-87
2021/10/30 06:00:51;;;;;;;15.80;11.52;;;11.30;96.80;;;;;;5055182;28;20048;-90
2021/10/30 06:03:17;;;;;;;14.57;10.77;;;11.40;96.80;;;;;;5055087;28;20045;-88
2021/10/30 06:05:42;;;;;;;16.63;11.85;;;11.40;96.80;;;;;;5059265;28;20048;-87
2021/10/30 06:08:08;;;;;;;16.17;11.52;;;11.40;96.90;;;;;;5057080;28;20063;-91
2021/10/30 06:10:34;;;;;;;19.05;12.18;;;11.40;96.90;;;;;;5059003;28;20094;-90
2021/10/30 06:13:00;;;;;;;13.15;9.75;;;11.40;96.90;;;;;;5058683;28;20044;-90
2021/10/30 06:15:26;;;;;;;15.20;10.55;;;11.40;96.90;;;;;;5053075;28;20128;-90
2021/10/30 06:17:51;;;;;;;17.20;11.30;;;11.40;96.90;;;;;;5058432;28;20037;-90
2021/10/30 06:20:17;;;;;;;16.30;9.43;;;11.40;96.80;;;;;;5058007;28;20036;-90
2021/10/30 06:22:43;;;;;;;14.00;10.05;;;11.40;96.60;;;;;;5058955;28;20044;-91
2021/10/30 06:25:10;;;;;;;18.67;10.45;;;11.40;96.60;;;;;;5059069;28;20053;-90
2021/10/30 06:27:37;;;;;;;14.77;11.00;;;11.40;96.70;;;;;;5055140;28;20053;-90
2021/10/30 06:30:03;;;;;;;15.40;10.98;;;11.40;96.80;;;;;;5054692;28;20484;-89
2021/10/30 06:32:28;;;;;;;14.80;10.25;;;11.50;96.80;;;;;;5057580;28;20048;-91
2021/10/30 06:34:54;;;;;;;13.57;10.38;;;11.40;96.80;;;;;;5057466;28;20040;-89
2021/10/30 06:37:19;;;;;;;14.98;10.60;;;11.50;96.70;;;;;;5057555;28;20087;-89
2021/10/30 06:39:45;;;;;;;14.27;9.80;;;11.50;96.80;;;;;;5058695;28;20446;-91
2021/10/30 06:42:11;;;;;;;12.90;9.85;;;11.50;96.80;;;;;;5057121;28;20571;-88
2021/10/30 06:44:36;;;;;;;13.00;9.40;;;11.50;96.60;;;;;;5057723;28;20127;-89
2021/10/30 06:47:02;;;;;;;17.42;9.85;;;11.50;96.60;;;;;;5058127;28;20071;-91
2021/10/30 06:49:27;;;;;;;13.52;9.65;;;11.50;96.60;;;;;;5057890;28;20087;-91
2021/10/30 06:51:53;;;;;;;14.02;9.23;;;11.50;96.60;;;;;;5057717;28;20087;-89
2021/10/30 06:54:19;;;;;;;15.88;9.45;;;11.50;96.50;;;;;;5057909;28;20036;-90
2021/10/30 06:56:45;;;;;;;11.55;8.32;;;11.50;96.50;;;;;;5056110;28;20989;-85
2021/10/30 06:59:11;;;;;;;12.45;9.07;;;11.50;96.40;;;;;;5057940;28;20036;-85
2021/10/30 07:01:36;;;;;;;14.98;9.48;;;11.50;96.50;;;;;;5057016;28;20507;-85
2021/10/30 07:04:04;;;;;;;14.15;9.05;;;11.50;96.60;;;;;;5056958;28;20044;-89
2021/10/30 07:06:30;;;;;;;11.43;8.77;;;11.50;96.50;;;;;;5056958;28;20051;-89
2021/10/30 07:08:56;;;;;;;16.52;9.35;;;11.50;96.50;;;;;;5057588;28;20063;-89
2021/10/30 07:11:23;;;;;;;13.15;7.93;;;11.60;96.60;;;;;;5074554;28;20056;-88
2021/10/30 07:13:48;;;;;;;14.93;8.32;;;11.60;96.60;;;;;;5056453;28;20126;-89
2021/10/30 07:16:15;;;;;;;13.48;8.10;;;11.60;96.50;;;;;;5055988;28;20500;-88
2021/10/30 07:18:41;;;;;;;13.07;8.32;;;11.60;96.50;;;;;;5055563;28;20040;-89
2021/10/30 07:21:06;;;;;;;16.65;8.55;;;11.70;96.50;;;;;;5055832;28;20476;-87
2021/10/30 07:23:32;;;;;;;12.55;8.85;;;11.60;96.50;;;;;;5057064;28;20418;-87
2021/10/30 07:25:57;;;;;;;12.38;8.35;;;11.60;96.50;;;;;;5054982;28;20767;-87
2021/10/30 07:28:23;;;;;;;12.77;7.65;;;11.60;96.60;;;;;;5055954;28;20452;-86
2021/10/30 07:30:48;;;;;;;14.38;7.93;;;11.60;96.60;;;;;;5056039;28;20391;-86
2021/10/30 07:33:14;;;;;;;10.77;8.02;;;11.60;96.70;;;;;;5055232;28;20048;-85
2021/10/30 07:35:39;;;;;;;14.52;7.80;;;11.70;96.80;;;;;;5056236;28;20037;-87
2021/10/30 07:38:05;;;;;;;15.35;8.43;;;11.60;96.80;;;;;;5043074;28;20057;-86
2021/10/30 07:40:31;;;;;;;11.50;8.20;;;11.70;96.90;;;;;;5036589;28;20472;-86
2021/10/30 07:42:58;;;;;;;11.88;7.63;;;11.60;97.00;;;;;;5048114;28;20500;-86
2021/10/30 07:45:25;;;;;;;13.63;8.40;;;11.70;97.00;;;;;;5029081;28;20119;-86
2021/10/30 07:47:51;;;;;;;11.60;8.27;;;11.60;97.00;;;;;;5034048;28;20167;-87
2021/10/30 07:50:17;;;;;;;12.02;8.38;;;11.60;97.10;;;;;;5036226;28;20082;-87
2021/10/30 07:52:43;;;;;;;14.35;8.48;;;11.60;97.20;;;;;;5035698;28;20124;-87
2021/10/30 07:55:08;;;;;;;11.63;7.90;;;11.60;97.20;;;;;;5035840;28;20185;-87
2021/10/30 07:57:34;;;;;;;12.23;8.32;;;11.70;97.30;;;;;;5022694;28;20497;-87
2021/10/30 08:00:00;;;;;;;12.20;7.90;;;11.60;97.40;;;;;;5033320;28;20175;-87
2021/10/30 08:02:26;;;;;;;13.68;8.30;;;11.60;97.40;;;;;;5046881;28;20124;-86
2021/10/30 08:04:51;;;;;;;15.88;8.30;;;11.60;97.40;;;;;;5044683;28;20064;-86
2021/10/30 08:07:17;;;;;;;11.80;8.07;;;11.70;97.50;;;;;;5015384;28;20041;-87
2021/10/30 08:09:44;;;;;;;15.57;8.05;;;11.60;97.50;;;;;;5034169;28;20456;-87
2021/10/30 08:12:10;;;;;;;11.95;7.50;;;11.60;97.60;;;;;;5024241;28;20512;-86
2021/10/30 08:14:36;;;;;;;12.18;7.85;;;11.60;97.60;;;;;;5023113;28;20037;-87
2021/10/30 08:17:02;;;;;;;11.57;7.55;;;11.60;97.60;;;;;;5035894;28;20119;-86
2021/10/30 08:19:27;;;;;;;14.73;8.13;;;11.60;97.60;;;;;;5031302;28;20370;-86
2021/10/30 08:21:53;;;;;;;11.50;7.32;;;11.60;97.70;;;;;;5030514;28;20562;-86
2021/10/30 08:24:19;;;;;;;12.18;8.18;;;11.60;97.80;;;;;;5036694;28;20072;-86
2021/10/30 08:26:44;;;;;;;12.05;8.00;;;11.60;97.80;;;;;;5035185;28;20049;-86
2021/10/30 08:29:10;;;;;;;11.77;7.90;;;11.60;97.80;;;;;;5029359;28;20095;-86
2021/10/30 08:31:36;;;;;;;11.23;7.78;;;11.60;97.90;;;;;;5035253;28;20058;-86
2021/10/30 08:34:02;;;;;;;10.68;7.20;;;11.60;97.90;;;;;;5029176;28;20040;-85
2021/10/30 08:36:28;;;;;;;12.77;8.50;;;11.60;98.00;;;;;;5032111;28;20044;-84
2021/10/30 08:38:54;;;;;;;11.73;7.53;;;11.60;98.00;;;;;;5035584;28;20462;-84
2021/10/30 08:41:20;;;;;;;13.75;8.52;;;11.60;98.10;;;;;;5035177;28;20496;-84
2021/10/30 08:43:48;;;;;;;12.30;7.65;;;11.60;98.20;;;;;;5045242;28;20068;-84
2021/10/30 08:46:14;;;;;;;12.80;7.63;;;11.60;98.30;;;;;;5052490;28;20052;-84
2021/10/30 08:48:40;;;;;;;10.98;7.50;;;11.60;98.30;;;;;;5051226;28;20083;-84
2021/10/30 08:51:06;;;;;;;11.45;7.68;;;11.60;98.40;;;;;;5051817;28;20049;-85
2021/10/30 08:53:32;;;;;;;13.85;7.75;;;11.60;98.50;;;;;;5052149;28;20064;-85
2021/10/30 08:56:03;;;;;;;10.15;7.20;;;11.60;98.50;;;;;;5051609;28;20045;-85
2021/10/30 08:58:30;;;;;;;12.82;7.78;;;11.60;98.60;;;;;;5052385;28;20060;-85
2021/10/30 09:00:58;;;;;;;12.38;7.40;;;11.70;98.60;;;;;;5051247;28;20049;-85
2021/10/30 09:03:25;;;;;;;10.32;6.97;;;11.70;98.70;;;;;;5050794;28;20128;-84
2021/10/30 09:05:54;;;;;;;10.48;7.55;;;11.70;98.60;;;;;;5037326;28;20072;-86
2021/10/30 09:08:26;;;;;;;12.32;7.47;;;11.70;98.60;;;;;;5037085;28;20048;-88
2021/10/30 09:11:14;;;;;;;12.10;7.40;;;11.70;98.70;;;;;;5051709;28;20147;-86
2021/10/30 09:13:40;;;;;;;11.40;7.38;;;11.80;98.80;;;;;;5052506;28;20142;-87
2021/10/30 09:16:06;;;;;;;12.32;7.30;;;11.70;98.80;;;;;;5051328;28;20131;-87
2021/10/30 09:18:40;;;;;;;10.48;6.75;;;11.80;98.90;;;;;;5051370;28;20045;-89
2021/10/30 09:21:15;;;;;;;10.98;6.45;;;11.80;98.90;;;;;;5052198;28;20131;-88
2021/10/30 09:23:46;;;;;;;10.98;6.88;;;11.80;98.80;;;;;;5051984;28;20060;-88
2021/10/30 09:26:24;;;;;;;11.25;6.90;;;11.80;98.90;;;;;;5052075;28;20388;-87
2021/10/30 09:28:58;;;;;;;9.30;6.07;;;11.80;99.00;;;;;;5051542;28;20048;-88
2021/10/30 09:31:25;;;;;;;11.25;6.65;;;11.80;99.00;;;;;;5051228;28;20120;-87
2021/10/30 09:33:59;;;;;;;11.63;6.75;;;11.90;99.00;;;;;;5051298;28;20045;-88
2021/10/30 09:36:32;;;;;;;11.10;6.40;;;11.90;99.00;;;;;;5052427;28;20049;-86
2021/10/30 09:39:09;;;;;;;8.13;6.30;;;11.90;99.10;;;;;;5052555;28;20037;-88
2021/10/30 09:41:44;;;;;;;10.30;6.30;;;12.00;99.10;;;;;;5056102;28;20048;-88
2021/10/30 09:44:12;;;;;;;9.57;6.07;;;12.00;99.10;;;;;;5059520;28;20128;-88
2021/10/30 09:46:44;;;;;;;9.10;5.93;;;12.00;99.10;;;;;;5059091;28;20056;-88
2021/10/30 09:49:13;;;;;;;9.27;6.38;;;12.00;99.00;;;;;;5058777;28;20037;-89
2021/10/30 09:51:40;;;;;;;11.20;6.63;;;12.10;99.10;;;;;;5058798;28;20051;-87
2021/10/30 09:54:07;;;;;;;13.57;6.18;;;12.10;99.10;;;;;;5057679;28;20033;-87
2021/10/30 09:56:40;;;;;;;8.85;5.97;;;12.20;99.20;;;;;;5059123;28;20059;-88
2021/10/30 09:59:07;;;;;;;;;;;12.20;99.10;;;;;;5057515;28;20052;-86
2021/10/30 10:01:35;;;;;;;9.38;5.93;;;12.20;99.20;;;;;;5059032;28;19928;-86
2021/10/30 10:04:01;;;;;;;10.40;5.63;;;12.20;99.00;;;;;;5058406;28;20068;-86
2021/10/30 10:06:26;;;;;;;10.57;5.97;;;12.30;98.90;;;;;;5057881;28;20507;-87
2021/10/30 10:08:52;;;;;;;9.38;5.47;;;12.30;98.90;;;;;;5058212;28;20044;-84
2021/10/30 10:11:19;;;;;;;9.68;5.38;;;12.30;98.80;;;;;;5058175;28;20036;-85
2021/10/30 10:13:50;;;;;;;9.75;5.70;;;12.30;98.70;;;;;;5057714;28;20074;-83
2021/10/30 10:16:21;;;;;;;8.85;5.45;;;12.30;98.70;;;;;;5058365;28;20513;-84
2021/10/30 10:18:48;;;;;;;8.15;5.55;;;12.30;98.70;;;;;;5058242;28;20510;-84
2021/10/30 10:21:19;;;;;;;10.25;5.45;;;12.40;98.70;;;;;;5057654;28;20045;-83
2021/10/30 10:23:45;;;;;;;9.60;5.53;;;12.40;98.80;;;;;;5058694;28;20044;-84
2021/10/30 10:26:12;;;;;;;9.40;5.63;;;12.50;98.80;;;;;;5057687;28;20404;-83
2021/10/30 10:28:38;;;;;;;11.05;5.18;;;12.50;98.80;;;;;;5058061;28;20056;-82
2021/10/30 10:31:10;;;;;;;10.07;5.50;;;12.50;98.80;;;;;;5057981;28;20041;-83
2021/10/30 10:33:40;;;;;;;9.40;5.30;;;12.50;98.80;;;;;;5058237;28;20040;-83
2021/10/30 10:36:27;;;;;;;9.23;5.70;;;12.50;98.80;;;;;;5057438;28;20080;-82
2021/10/30 10:38:53;;;;;;;11.50;5.40;;;12.60;98.80;;;;;;5058635;28;20063;-82
2021/10/30 10:41:37;;;;;;;8.15;4.82;;;12.50;98.80;;;;;;5057210;28;20547;-82
2021/10/30 10:44:10;;;;;;;11.02;5.03;;;12.60;98.60;;;;;;5057938;28;20052;-83
2021/10/30 10:46:42;;;;;;;7.82;5.35;;;12.60;98.70;;;;;;5058420;28;20063;-83
2021/10/30 10:49:45;;;;;;;9.23;5.35;;;12.70;98.70;;;;;;5056717;28;20602;-83
2021/10/30 10:54:58;;;;;;;10.95;5.13;;;12.60;98.70;;;;;;5058727;28;20055;-83
2021/10/30 10:57:29;;;;;;;8.52;5.32;;;12.60;98.60;;;;;;5057257;28;20048;-83
2021/10/30 10:59:58;;;;;;;8.10;5.38;;;12.70;98.50;;;;;;5058036;28;20070;-82
2021/10/30 11:02:28;;;;;;;9.98;5.18;;;12.70;98.60;;;;;;5056967;28;20055;-82
2021/10/30 11:05:10;;;;;;;9.18;4.63;;;12.70;98.60;;;;;;5057928;28;20112;-82
2021/10/30 11:07:39;;;;;;;9.30;5.30;;;12.70;98.50;;;;;;5075846;28;20060;-82
2021/10/30 11:10:15;;;;;;;7.57;4.90;;;12.70;98.60;;;;;;5074699;28;20044;-82
2021/10/30 11:13:02;;;;;;;7.45;4.65;;;12.70;98.50;;;;;;5057645;28;20037;-82
2021/10/30 11:15:43;;;;;;;9.05;5.18;;;12.70;98.50;;;;;;5057645;28;20078;-83
2021/10/30 11:21:08;;;;;;;11.48;5.40;;;12.70;98.50;;;;;;5043185;28;20044;-82
2021/10/30 11:23:47;;;;;;;7.68;4.97;;;12.70;98.60;;;;;;5056445;28;20048;-82
2021/10/30 11:26:19;;;;;;;8.05;5.30;;;12.70;98.60;;;;;;5056226;28;20040;-81
2021/10/30 11:28:45;;;;;;;9.68;5.15;;;12.80;98.70;;;;;;5056688;28;20127;-81
2021/10/30 11:31:23;;;;;;;8.52;4.90;;;12.80;98.70;;;;;;5055217;28;20075;-81
2021/10/30 11:34:00;;;;;;;8.38;5.05;;;12.70;98.70;;;;;;5057391;28;20048;-81
2021/10/30 11:36:27;;;;;;;8.27;5.25;;;12.70;98.60;;;;;;5055327;28;20093;-83
2021/10/30 11:38:55;;;;;;;10.70;5.57;;;12.70;98.70;;;;;;5055297;28;20048;-83
2021/10/30 11:41:26;;;;;;;8.75;5.53;;;12.80;98.80;;;;;;5054245;28;20049;-84
2021/10/30 11:44:07;;;;;;;10.35;5.65;;;12.80;98.80;;;;;;5054781;28;20064;-83
2021/10/30 11:46:42;;;;;;;10.20;5.00;;;12.80;98.80;;;;;;5055938;28;20432;-83
2021/10/30 11:49:08;;;;;;;7.95;4.88;;;12.80;98.80;;;;;;5055678;28;20521;-83
2021/10/30 11:51:34;;;;;;;9.52;5.57;;;12.80;98.80;;;;;;5055082;28;20503;-83
2021/10/30 11:54:04;;;;;;;7.55;4.97;;;12.80;98.80;;;;;;5056316;28;20036;-83
2021/10/30 11:56:31;;;;;;;8.65;5.07;;;12.80;98.70;;;;;;5056160;28;20048;-83
2021/10/30 11:58:58;;;;;;;9.13;5.30;;;12.90;98.80;;;;;;5054341;28;20174;-83
2021/10/30 12:01:35;;;;;;;8.32;5.40;;;12.80;99.10;;;;;;5048937;28;20056;-83
2021/10/30 12:04:11;;;;;;;9.70;5.18;;;12.80;98.80;;;;;;5056116;28;20129;-82
2021/10/30 12:06:40;;;;;;;7.68;5.07;;;12.90;98.80;;;;;;5044805;28;20467;-83
2021/10/30 12:09:26;;;;;;;8.13;5.00;;;12.90;98.80;;;;;;5036337;28;20427;-83
2021/10/30 12:11:55;;;;;;;10.88;5.65;;;12.90;98.70;;;;;;5036096;28;20055;-82
2021/10/30 12:14:29;;;;;;;9.90;5.28;;;12.90;98.80;;;;;;5039245;28;20485;-82
2021/10/30 12:16:58;;;;;;;8.73;4.80;;;12.90;98.80;;;;;;5043813;28;20051;-83
2021/10/30 12:19:26;;;;;;;9.43;4.93;;;12.90;98.80;;;;;;5055717;28;20041;-83
2021/10/30 12:22:18;;;;;;;9.05;4.95;;;13.00;98.80;;;;;;5073801;28;20040;-83
2021/10/30 12:24:45;;;;;;;7.78;4.80;;;13.00;98.80;;;;;;5055647;28;20056;-83
2021/10/30 12:27:11;;;;;;;10.18;4.95;;;13.00;98.90;;;;;;5047397;28;20060;-83
2021/10/30 12:29:45;;;;;;;8.15;4.70;;;13.00;98.80;;;;;;5055509;28;20053;-83
2021/10/30 12:32:16;;;;;;;8.45;4.60;;;13.00;98.80;;;;;;5050874;28;20408;-83
2021/10/30 12:34:54;;;;;;;7.93;4.47;;;13.00;98.80;;;;;;5035149;28;20087;-82
2021/10/30 12:37:25;;;;;;;10.40;4.90;;;13.10;98.90;;;;;;5035795;28;20049;-82
2021/10/30 12:40:22;;;;;;;8.02;4.70;;;13.00;98.80;;;;;;5036005;28;20404;-82
2021/10/30 12:43:06;;;;;;;8.75;4.57;;;13.10;98.60;;;;;;5033014;28;20056;-83
2021/10/30 12:45:54;;;;;;;7.22;4.70;;;13.00;98.70;;;;;;5035675;28;20064;-82
2021/10/30 12:48:21;;;;;;;9.70;4.75;;;13.10;98.80;;;;;;5032647;28;20041;-83
2021/10/30 12:50:59;;;;;;;7.22;4.30;;;13.10;98.90;;;;;;5034941;28;20041;-83